North Dighton, MA

41° 51' 30"N, 71° 08' 44"W, Elevation 95 ft.
Eastern Time

Hourly observations for the last 72 hours

Date Time Temperature (°F) Humi-
dity

(%)
Wind
(mph)
Pressure Rain (in) Sun
(W/m2)
UV ET
(in)
Air Dew 6 Hour 1 Hr 3 Hr 6 Hr Day
Alt
(in)
Sea
Level

(mb)
Max Min
19 09:00 35.7 34.1 94 WSW 4 G 7 29.63 1003.4 0.00 257 0.0 0.000
19 08:00 34.3 33.0 95 W 1 G 3 29.62 1003.0 0.00 14 0.0 0.000
19 07:00 34.4 33.1 34.5 30.1 95 W 2 G 4 29.61 1002.6 0.00 0 0.0 0.000
19 06:00 34.1 32.8 95 WSW 3 G 8 29.59 1002.0 0.00 0 0.0 0.000
19 05:00 32.3 31.0 95 WSW 2 G 6 29.59 1002.2 0.00 0 0.0 0.000
19 04:00 31.4 30.1 95 WSW 0 G 2 29.61 1002.8 0.00 0 0.0 0.000
19 03:00 31.3 30.0 95 WNW 3 G 4 29.63 1003.5 0.00 0 0.0 0.000
19 02:00 30.3 28.8 94 WNW 0 G 2 29.66 1004.4 0.00 0 0.0 0.000
19 01:00 30.7 29.2 30.8 20.9 94 NW 3 G 5 29.67 1004.9 0.10 0.28 0.00 0 0.0 0.000
19 00:00 28.7 27.2 94 E 0 G 3 29.74 1007.1 0.03 0.28 0 0.0 0.019
18 23:00 25.4 23.4 92 SE 1 G 2 29.81 1009.6 0.07 0.25 0 0.0 0.019
18 22:00 24.5 22.3 91 Calm 29.88 1011.9 0.09 0.18 0.18 0 0.0 0.019
18 21:00 22.7 20.2 90 ESE 2 G 4 29.93 1013.6 0.07 0.09 0 0.0 0.019
18 20:00 21.6 18.9 89 E 1 G 4 30.02 1016.6 0.02 0.02 0 0.0 0.019
18 19:00 20.9 17.6 22.9 20.7 87 ENE 2 G 4 30.10 1019.3 0.00 0 0.0 0.019
18 18:00 21.1 16.2 81 ESE 2 G 5 30.16 1021.4 0.00 0 0.0 0.018
18 17:00 22.9 13.6 67 E 3 G 6 30.24 1023.9 0.00 0 0.0 0.017
18 16:00 22.3 10.1 59 S 3 G 8 30.30 1026.0 0.00 14 0.0 0.016
18 15:00 21.7 5.9 50 SE 5 G 8 30.33 1027.2 0.00 44 0.0 0.015
18 14:00 21.4 4.7 48 SW 4 G 11 30.37 1028.3 0.00 120 0.0 0.013
18 13:00 21.0 4.4 21.2 12.6 48 S 5 G 9 30.39 1029.3 0.00 151 0.7 0.010
18 12:00 18.9 3.7 51 S 2 G 6 30.42 1030.0 0.00 151 0.7 0.008
18 11:00 17.5 2.0 50 NE 2 G 4 30.46 1031.6 0.00 162 0.7 0.006
18 10:00 16.2 2.1 53 ENE 0 G 5 30.50 1033.0 0.00 237 0.7 0.004
18 09:00 14.7 2.2 57 N 2 G 5 30.52 1033.5 0.00 98 0.0 0.003
18 08:00 13.5 2.9 62 W 1 G 3 30.55 1034.5 0.00 37 0.0 0.003
18 07:00 12.6 2.7 12.9 11.0 64 WNW 3 G 4 30.56 1035.0 0.00 0 0.0 0.003
18 06:00 11.8 2.3 65 W 1 G 3 30.58 1035.4 0.00 0 0.0 0.003
18 05:00 11.2 1.1 63 N 3 G 4 30.56 1035.0 0.00 0 0.0 0.003
18 04:00 11.2 0.7 62 NW 1 G 3 30.58 1035.5 0.00 0 0.0 0.003
18 03:00 11.7 0.1 59 WNW 2 G 4 30.59 1036.0 0.00 0 0.0 0.002
18 02:00 12.4 -1.1 54 NNW 5 G 9 30.58 1035.5 0.00 0 0.0 0.001
18 01:00 12.9 -1.4 18.0 12.9 52 NW 6 G 11 30.58 1035.5 0.00 0 0.0 0.000
18 00:00 13.4 -1.8 50 NW 4 G 10 30.60 1036.4 0.00 0 0.0 0.081
17 23:00 14.0 -2.1 48 NNW 8 G 14 30.61 1036.7 0.00 0 0.0 0.080
17 22:00 14.8 -3.2 44 NW 5 G 12 30.59 1036.1 0.00 0 0.0 0.079
17 21:00 15.6 -2.5 44 NNW 9 G 12 30.60 1036.1 0.00 0 0.0 0.078
17 20:00 16.7 -2.9 41 NW 7 G 14 30.58 1035.7 0.00 0 0.0 0.076
17 19:00 18.0 -3.9 24.0 17.9 37 NNW 14 G 22 30.58 1035.8 0.00 0 0.0 0.074
17 18:00 19.4 -4.4 34 NW 13 G 22 30.58 1035.5 0.00 0 0.0 0.071
17 17:00 20.7 -3.9 33 NW 15 G 20 30.56 1034.8 0.00 0 0.0 0.068
17 16:00 22.2 -1.9 34 NW 12 G 22 30.52 1033.6 0.00 42 0.0 0.064
17 15:00 23.6 -2.0 32 NW 13 G 22 30.51 1033.1 0.00 114 0.0 0.058
17 14:00 23.5 -2.7 31 NW 17 G 25 30.49 1032.5 0.00 394 0.7 0.050
17 13:00 23.2 -1.0 23.2 17.2 34 NNW 14 G 27 30.48 1032.2 0.00 482 1.0 0.041
17 12:00 21.7 -1.8 35 NW 17 G 28 30.48 1032.1 0.00 506 1.1 0.033
17 11:00 19.7 -1.8 38 NW 18 G 29 30.48 1032.3 0.00 478 1.0 0.026
17 10:00 18.8 -1.6 40 NNW 14 G 28 30.47 1031.7 0.00 397 0.7 0.020
17 09:00 18.7 0.9 45 NNW 19 G 30 30.43 1030.4 0.00 269 0.0 0.016
17 08:00 17.3 5.0 58 NW 20 G 29 30.39 1029.1 0.00 113 0.0 0.014
17 07:00 17.9 6.0 27.7 17.9 59 NNW 16 G 26 30.35 1027.9 0.00 0 0.0 0.012
17 06:00 19.4 6.3 56 NNW 20 G 32 30.30 1026.2 0.00 0 0.0 0.010
17 05:00 20.4 8.0 58 NW 14 G 29 30.25 1024.3 0.00 0 0.0 0.008
17 04:00 22.1 10.3 60 NW 16 G 25 30.20 1022.7 0.00 0 0.0 0.006
17 03:00 23.9 12.4 61 NW 17 G 25 30.15 1021.1 0.00 0 0.0 0.004
17 02:00 25.6 13.6 60 NW 12 G 23 30.12 1020.1 0.00 0 0.0 0.002
17 01:00 27.7 14.4 35.2 27.7 57 NNW 23 G 35 30.08 1018.6 0.00 0 0.0 0.000
17 00:00 29.3 16.0 57 NW 16 G 22 30.04 1017.2 0.05 0 0.0 0.064
16 23:00 31.2 19.7 62 NW 10 G 20 30.00 1016.0 0.05 0 0.0 0.062
16 22:00 31.7 19.8 61 NNW 6 G 12 29.97 1015.0 0.05 0 0.0 0.060
16 21:00 32.6 19.9 59 NNW 14 G 21 29.94 1014.0 0.05 0 0.0 0.057
16 20:00 33.8 19.3 55 NNW 13 G 26 29.93 1013.6 0.05 0 0.0 0.054
16 19:00 35.2 21.5 44.2 35.1 57 NNW 11 G 21 29.90 1012.7 0.05 0 0.0 0.051
16 18:00 36.1 23.6 60 NW 14 G 21 29.85 1010.9 0.05 0 0.0 0.048
16 17:00 37.6 23.7 57 NW 16 G 30 29.80 1009.2 0.05 0 0.0 0.044
16 16:00 40.7 27.9 60 WNW 17 G 31 29.74 1007.3 0.05 72 0.0 0.038
16 15:00 42.1 28.4 58 NW 22 G 39 29.69 1005.6 0.05 105 0.0 0.029
16 14:00 43.4 30.9 61 NW 22 G 37 29.66 1004.3 0.05 86 0.5 0.022
16 13:00 43.8 33.2 46.2 33.4 66 WNW 11 G 30 29.65 1004.0 0.02 0.05 95 0.0 0.016
16 12:00 46.0 36.4 69 WNW 20 G 38 29.65 1004.0 0.05 504 1.1 0.006
16 11:00 44.6 40.4 85 W 11 G 29 29.67 1004.8 0.05 462 1.1 0.001
16 10:00 42.8 42.0 97 W 6 G 13 29.69 1005.5 0.01 0.02 0.05 58 0.0 0.000

Data generated by WxSolution Version 1.9.1.7, Build 2018.11.24.